Pangborn Memorial Airport
KEAT : rendu visible

Aérodrome :











RETROUVEZ-NOUS SUR...

 
LOGIN :

S'inscrire | Disclaimer

   EN    FR    IT 

 









Légende :    VFR   VFR Marginal   IFR   IFR Intensif   IFR Très Intensif
Visi : 
Plafond : 
>= 8 km
>= 3000ft
5 à 8 km
1000 à 3000 ft
1500m à 5 km
500 à 1000 ft
800 à 1500m
200 à 500 ft
< 800m
< 200 ft
Symboles :   Orages  Brouillard  Fortes neiges  Fortes précipitations  Vent > 20 kt






- Altitude de l'aérodrome : 1249 ft


KEAT - Pangborn Memorial

DERNIER METAR :
  • 281155Z AUTO 28005KT 10SM OVC120 04/M01 A2996 RMK AO2 SLP149 T00391006 10078 20033 51001

METARs EXPIRÉS :
  • 281055Z AUTO 31006KT 10SM CLR 04/M01 A2996 RMK AO2 SLP149 T00391006
  • 280955Z AUTO 28004KT 10SM CLR 04/M01 A2997 RMK AO2 SLP153 T00441006

TAF KEAT
Valide du 28 à 12h jusqu'au 29 à 12h UTC


281142Z 2812/2912 30005KT P6SM FEW100
FM281600 VRB04KT P6SM OVC090
FM282100 23007KT P6SM BKN050 OVC080
FM290200 30008KT P6SM SCT060 OVC080



MET'MAP, la Météo Aéronautique d'un coup d'oeil ! - Copyright ORBIFLY Décembre 2007 - Disclaimer

ORBIFLY MET'MAP TEAM :

Programmation & Développement : Alexandra Zaïnal
Sur une idée originale de : Baudouin d'Aumeries
Assistance à la programmation : Marc-Olivier Méhu
Soutien technique & logistique : Manuel Goepfert

Contact : metmap@orbifly.com




SOURCES & CREDITS :

   NOAA       Earth
Advisory